createdAt,value
2023-01-01T00:01:30.210Z,104.00
2023-01-01T00:04:00.160Z,107.75
2023-01-01T00:06:27.657Z,108.50
2023-01-01T00:09:09.099Z,102.00
2023-01-01T00:11:36.517Z,100.50
2023-01-01T00:14:10.145Z,97.25
2023-01-01T00:16:39.683Z,101.00
2023-01-01T00:19:08.618Z,103.25
2023-01-01T00:21:36.078Z,108.25
2023-01-01T00:24:03.509Z,104.75
2023-01-01T00:26:34.915Z,101.50
2023-01-01T00:29:03.171Z,99.25
2023-01-01T00:31:30.716Z,101.25
2023-01-01T00:33:58.443Z,103.00
2023-01-01T00:36:27.767Z,102.50
2023-01-01T00:38:55.477Z,98.75
2023-01-01T00:41:22.941Z,101.25
2023-01-01T00:43:50.614Z,101.00
2023-01-01T00:46:18.137Z,99.50
2023-01-01T00:48:45.570Z,104.25
2023-01-01T00:51:13.033Z,98.75
2023-01-01T00:53:41.766Z,98.25
2023-01-01T00:56:09.190Z,96.50
2023-01-01T00:58:36.612Z,102.25
2023-01-01T01:01:04.191Z,100.00
2023-01-01T01:03:31.785Z,100.00
2023-01-01T01:05:59.791Z,98.00
2023-01-01T01:08:30.959Z,105.50
2023-01-01T01:11:06.105Z,100.50
2023-01-01T01:13:33.536Z,101.00
2023-01-01T01:16:00.941Z,107.25
2023-01-01T01:18:28.372Z,103.25
2023-01-01T01:20:55.795Z,105.75
2023-01-01T01:23:23.215Z,105.75
2023-01-01T01:25:50.850Z,112.75
2023-01-01T01:28:19.546Z,113.50
2023-01-01T01:30:46.989Z,114.00
2023-01-01T01:33:14.443Z,116.75
2023-01-01T01:35:41.891Z,108.50
2023-01-01T01:38:10.626Z,118.50
2023-01-01T01:40:38.048Z,117.00
2023-01-01T01:43:06.583Z,116.75
2023-01-01T01:45:35.283Z,121.75
2023-01-01T01:48:02.873Z,112.25
2023-01-01T01:50:31.372Z,118.75
2023-01-01T01:53:02.377Z,125.25
2023-01-01T01:55:30.767Z,116.75
2023-01-01T01:57:58.195Z,115.25
2023-01-01T02:00:25.610Z,118.75
2023-01-01T02:02:57.720Z,121.75
2023-01-01T02:05:25.178Z,121.00
2023-01-01T02:07:52.613Z,111.50
2023-01-01T02:10:20.157Z,116.50
2023-01-01T02:12:47.616Z,98.75
2023-01-01T02:15:15.090Z,122.50
2023-01-01T02:17:46.834Z,123.25
2023-01-01T02:20:24.824Z,119.25
2023-01-01T02:23:13.417Z,119.75
2023-01-01T02:25:45.908Z,121.25
2023-01-01T02:28:16.295Z,123.00
2023-01-01T02:30:45.521Z,112.75
2023-01-01T02:33:16.256Z,115.00
2023-01-01T02:35:44.532Z,123.75
2023-01-01T02:38:17.765Z,119.75
2023-01-01T02:40:46.167Z,117.00
2023-01-01T02:43:13.589Z,121.75
2023-01-01T02:45:41.158Z,114.00
2023-01-01T02:48:37.846Z,121.00
2023-01-01T02:51:07.069Z,122.50
2023-01-01T02:53:34.904Z,123.50
2023-01-01T02:56:05.406Z,123.00
2023-01-01T02:58:52.853Z,119.75
2023-01-01T03:01:22.339Z,120.50
2023-01-01T03:04:01.174Z,117.50
2023-01-01T03:06:31.140Z,124.75
2023-01-01T03:09:04.171Z,116.75
2023-01-01T03:11:36.432Z,116.00
2023-01-01T03:14:06.766Z,120.50
2023-01-01T03:17:46.870Z,121.00
2023-01-01T03:20:16.654Z,115.50
2023-01-01T03:25:11.438Z,117.75
2023-01-01T03:27:42.664Z,112.25
2023-01-01T03:30:11.305Z,122.00
2023-01-01T03:32:57.887Z,118.50
2023-01-01T03:35:26.757Z,116.25
2023-01-01T03:37:55.694Z,117.50
2023-01-01T03:40:23.176Z,114.75
2023-01-01T03:42:51.960Z,103.50
2023-01-01T03:45:21.197Z,115.50
2023-01-01T03:47:48.676Z,115.75
2023-01-01T03:50:16.194Z,104.75
2023-01-01T03:52:48.555Z,112.25
2023-01-01T03:55:19.399Z,118.25
2023-01-01T03:57:51.197Z,111.75
2023-01-01T04:00:20.003Z,112.75
2023-01-01T04:02:50.241Z,112.75
2023-01-01T04:05:18.666Z,114.75
2023-01-01T04:10:19.317Z,115.75
2023-01-01T04:12:47.740Z,113.25
2023-01-01T04:15:15.231Z,112.25
2023-01-01T04:17:42.639Z,109.50
2023-01-01T04:20:11.087Z,115.00
2023-01-01T04:22:38.576Z,109.50
2023-01-01T04:25:08.796Z,109.50
2023-01-01T04:27:36.280Z,110.75
2023-01-01T04:30:03.953Z,108.25
2023-01-01T04:32:31.386Z,108.00
2023-01-01T04:34:58.814Z,95.00
2023-01-01T04:37:26.215Z,110.50
2023-01-01T04:39:53.687Z,105.75
2023-01-01T04:42:22.479Z,107.00
2023-01-01T04:44:49.883Z,107.75
2023-01-01T04:47:17.282Z,104.50
2023-01-01T04:49:44.691Z,102.75
2023-01-01T04:52:12.114Z,103.00
2023-01-01T04:54:39.529Z,106.75
2023-01-01T04:57:06.938Z,108.25
2023-01-01T04:59:35.639Z,105.50
2023-01-01T05:02:03.256Z,102.50
2023-01-01T05:04:30.817Z,106.00
2023-01-01T05:06:58.294Z,101.00
2023-01-01T05:09:25.750Z,105.00
2023-01-01T05:11:54.975Z,97.75
2023-01-01T05:14:22.433Z,105.50
2023-01-01T05:16:51.171Z,100.00
2023-01-01T05:19:18.590Z,105.75
2023-01-01T05:21:46.500Z,93.75
2023-01-01T05:24:14.138Z,101.00
2023-01-01T05:26:42.531Z,102.75
2023-01-01T05:29:16.059Z,100.75
2023-01-01T05:31:44.808Z,101.50
2023-01-01T05:34:13.693Z,99.25
2023-01-01T05:36:41.184Z,97.75
2023-01-01T05:39:09.104Z,100.25
2023-01-01T05:41:37.277Z,101.00
2023-01-01T05:44:05.418Z,96.25
2023-01-01T05:46:32.842Z,101.75
2023-01-01T05:49:00.297Z,97.25
2023-01-01T05:51:29.852Z,94.75
2023-01-01T05:53:57.370Z,97.00
2023-01-01T05:56:24.791Z,93.25
2023-01-01T05:58:52.216Z,100.00
2023-01-01T06:01:21.201Z,93.50
2023-01-01T06:03:49.237Z,90.50
2023-01-01T06:06:18.212Z,89.50
2023-01-01T06:08:50.988Z,86.50
2023-01-01T06:11:18.417Z,91.00
2023-01-01T06:13:45.834Z,92.25
2023-01-01T06:16:13.357Z,90.75
2023-01-01T06:18:41.891Z,83.50
2023-01-01T06:21:10.221Z,92.75
2023-01-01T06:23:37.678Z,88.00
2023-01-01T06:26:07.868Z,89.50
2023-01-01T06:28:35.325Z,89.25
2023-01-01T06:31:02.789Z,91.25
2023-01-01T06:33:30.337Z,79.50
2023-01-01T06:35:57.751Z,89.75
2023-01-01T06:38:25.161Z,90.25
2023-01-01T06:40:58.883Z,87.25
2023-01-01T06:43:27.595Z,83.75
2023-01-01T06:46:04.618Z,85.25
2023-01-01T06:48:33.388Z,81.50
2023-01-01T06:51:06.094Z,91.25
2023-01-01T06:53:33.936Z,84.50
2023-01-01T06:56:01.346Z,85.75
2023-01-01T06:58:30.111Z,86.75
2023-01-01T07:01:08.336Z,80.50
2023-01-01T07:03:36.743Z,81.00
2023-01-01T07:06:04.435Z,84.25
2023-01-01T07:08:31.847Z,88.00
2023-01-01T07:10:59.259Z,84.75
2023-01-01T07:13:27.039Z,85.50
2023-01-01T07:15:55.785Z,86.75
2023-01-01T07:18:23.522Z,83.75
2023-01-01T07:20:51.279Z,81.75
2023-01-01T07:23:18.697Z,81.75
2023-01-01T07:25:46.112Z,80.25
2023-01-01T07:28:14.004Z,79.75
2023-01-01T07:30:41.604Z,76.25
2023-01-01T07:33:13.696Z,77.50
2023-01-01T07:35:41.630Z,79.50
2023-01-01T07:38:09.043Z,79.25
2023-01-01T07:40:36.476Z,79.00
2023-01-01T07:43:04.017Z,79.75
2023-01-01T07:45:31.435Z,80.75
2023-01-01T07:47:59.119Z,78.00
2023-01-01T07:50:29.811Z,78.75
2023-01-01T07:52:57.246Z,77.00
2023-01-01T07:55:24.759Z,77.25
2023-01-01T07:57:52.187Z,71.75
2023-01-01T08:00:20.453Z,75.75
2023-01-01T08:02:47.971Z,76.75
2023-01-01T08:05:17.785Z,78.25
2023-01-01T08:07:50.283Z,77.25
2023-01-01T08:10:18.002Z,76.75
2023-01-01T08:12:45.455Z,76.00
2023-01-01T08:15:12.948Z,77.50
2023-01-01T08:17:46.184Z,76.25
2023-01-01T08:20:14.493Z,78.50
2023-01-01T08:22:42.206Z,79.00
2023-01-01T08:25:11.095Z,77.75
2023-01-01T08:27:39.004Z,76.25
2023-01-01T08:30:07.458Z,77.50
2023-01-01T08:32:34.909Z,77.25
2023-01-01T08:35:02.361Z,76.50
2023-01-01T08:37:29.785Z,73.75
2023-01-01T08:39:57.266Z,76.00
2023-01-01T08:42:27.304Z,77.25
2023-01-01T08:44:54.735Z,73.25
2023-01-01T08:47:23.088Z,76.75
2023-01-01T08:49:50.559Z,76.00
2023-01-01T08:52:18.055Z,71.00
2023-01-01T08:54:45.568Z,73.25
2023-01-01T08:57:13.251Z,73.75
2023-01-01T08:59:41.989Z,62.75
2023-01-01T09:02:10.479Z,74.00
2023-01-01T09:04:38.130Z,74.00
2023-01-01T09:07:05.550Z,71.75
2023-01-01T09:09:32.982Z,73.50
2023-01-01T09:12:03.988Z,64.75
2023-01-01T09:14:31.744Z,69.00
2023-01-01T09:17:00.476Z,67.25
2023-01-01T09:19:27.915Z,69.75
2023-01-01T09:21:55.388Z,70.00
2023-01-01T09:24:22.865Z,68.25
2023-01-01T09:26:50.366Z,67.50
2023-01-01T09:29:20.504Z,68.50
2023-01-01T09:31:48.256Z,70.25
2023-01-01T09:34:17.962Z,67.50
2023-01-01T09:36:45.532Z,67.50
2023-01-01T09:39:13.953Z,66.50
2023-01-01T09:41:56.288Z,67.75
2023-01-01T09:44:30.499Z,65.75
2023-01-01T09:47:00.332Z,68.00
2023-01-01T09:49:32.798Z,67.25
2023-01-01T09:52:01.497Z,67.50
2023-01-01T09:54:29.609Z,66.75
2023-01-01T09:56:58.263Z,66.33
2023-01-01T09:59:25.794Z,67.00
2023-01-01T10:01:55.784Z,67.75
2023-01-01T10:04:29.513Z,64.75
2023-01-01T10:07:02.314Z,59.75
2023-01-01T10:09:34.361Z,66.75
2023-01-01T10:12:04.368Z,65.00
2023-01-01T10:14:33.072Z,65.33
2023-01-01T10:17:02.504Z,63.00
2023-01-01T10:19:32.663Z,65.67
2023-01-01T10:22:04.379Z,66.33
2023-01-01T10:24:36.135Z,64.33
2023-01-01T10:27:04.021Z,63.00
2023-01-01T10:29:36.271Z,64.33
2023-01-01T10:32:07.099Z,62.33
2023-01-01T10:34:34.578Z,64.67
2023-01-01T10:37:03.321Z,62.67
2023-01-01T10:39:30.765Z,62.33
2023-01-01T10:41:58.930Z,61.00
2023-01-01T10:44:27.764Z,64.33
2023-01-01T10:46:58.043Z,61.00
2023-01-01T10:49:25.549Z,62.33
2023-01-01T10:51:53.749Z,60.33
2023-01-01T10:54:34.279Z,59.00
2023-01-01T10:57:01.913Z,61.67
2023-01-01T10:59:37.160Z,62.00
2023-01-01T11:02:22.142Z,61.00
2023-01-01T11:04:49.892Z,57.67
2023-01-01T11:07:20.718Z,57.00
2023-01-01T11:10:02.568Z,54.00
2023-01-01T11:13:03.524Z,48.33
2023-01-01T11:15:24.355Z,45.75
2023-01-01T11:17:51.794Z,45.00
2023-01-01T11:20:20.061Z,40.75
2023-01-01T11:22:49.839Z,37.00
2023-01-01T11:25:20.985Z,30.25
2023-01-01T11:27:48.524Z,28.50
2023-01-01T11:30:24.310Z,30.00
2023-01-01T11:32:55.643Z,29.50
2023-01-01T11:35:24.622Z,25.75
2023-01-01T11:37:52.232Z,21.25
2023-01-01T11:40:22.878Z,25.25
2023-01-01T11:42:51.075Z,20.00
2023-01-01T11:45:26.734Z,20.75
2023-01-01T11:47:56.407Z,21.50
2023-01-01T11:50:27.156Z,17.25
2023-01-01T11:52:54.889Z,19.75
2023-01-01T11:55:26.840Z,16.75
2023-01-01T11:58:00.236Z,16.00
2023-01-01T12:00:27.628Z,15.50
2023-01-01T12:02:58.298Z,14.75
2023-01-01T12:05:26.791Z,12.00
2023-01-01T12:07:54.212Z,8.75
2023-01-01T12:10:23.187Z,12.75
2023-01-01T12:12:54.273Z,12.25
2023-01-01T12:15:24.210Z,9.25
2023-01-01T12:17:53.534Z,12.00
2023-01-01T12:20:24.185Z,10.00
2023-01-01T12:22:51.611Z,11.00
2023-01-01T12:25:19.664Z,10.00
2023-01-01T12:27:57.570Z,9.50
2023-01-01T12:30:25.192Z,11.25
2023-01-01T12:33:18.599Z,10.75
2023-01-01T12:35:53.823Z,11.25
2023-01-01T12:38:29.684Z,12.25
2023-01-01T12:40:58.416Z,11.50
2023-01-01T12:43:28.519Z,11.75
2023-01-01T12:46:26.305Z,12.00
2023-01-01T12:49:02.351Z,11.00
2023-01-01T12:51:33.017Z,9.75
2023-01-01T12:54:09.752Z,11.25
2023-01-01T12:56:39.351Z,12.75
2023-01-01T12:59:10.797Z,13.00
2023-01-01T13:01:38.334Z,11.00
2023-01-01T13:04:06.573Z,9.75
2023-01-01T13:06:42.126Z,11.00
2023-01-01T13:09:12.532Z,11.00
2023-01-01T13:11:44.909Z,9.75
2023-01-01T13:14:14.215Z,9.25
2023-01-01T13:16:42.239Z,10.00
2023-01-01T13:19:24.997Z,10.00
2023-01-01T13:21:52.419Z,9.50
2023-01-01T13:24:20.886Z,8.25
2023-01-01T13:26:49.127Z,11.25
2023-01-01T13:29:45.695Z,9.00
2023-01-01T13:32:13.799Z,9.00
2023-01-01T13:35:02.567Z,10.00
2023-01-01T13:37:31.851Z,9.50
2023-01-01T13:39:59.475Z,8.00
2023-01-01T13:42:40.254Z,8.00
2023-01-01T13:45:20.815Z,8.50
2023-01-01T13:48:11.528Z,10.00
2023-01-01T13:50:42.837Z,9.00
2023-01-01T13:53:19.009Z,8.75
2023-01-01T13:55:55.381Z,8.25
2023-01-01T13:58:58.689Z,8.75
2023-01-01T14:01:44.579Z,8.25
2023-01-01T14:04:27.886Z,9.50
2023-01-01T14:06:55.387Z,4.00
2023-01-01T14:09:22.832Z,8.25
2023-01-01T14:11:50.255Z,8.75
2023-01-01T14:14:24.946Z,6.50
2023-01-01T14:16:55.026Z,8.50
2023-01-01T14:19:22.441Z,2.50
2023-01-01T14:21:49.871Z,7.25
2023-01-01T14:24:17.745Z,6.50
2023-01-01T14:26:45.183Z,7.00
2023-01-01T14:29:17.325Z,7.50
2023-01-01T14:31:45.442Z,7.00
2023-01-01T14:34:23.484Z,8.00
2023-01-01T14:36:51.476Z,7.00
2023-01-01T14:39:28.025Z,6.00
2023-01-01T14:41:55.696Z,6.75
2023-01-01T14:44:25.721Z,7.00
2023-01-01T14:46:54.083Z,7.00
2023-01-01T14:49:23.915Z,8.00
2023-01-01T14:51:52.766Z,7.00
2023-01-01T14:54:20.625Z,6.25
2023-01-01T14:56:48.630Z,7.00
2023-01-01T14:59:19.243Z,7.00
2023-01-01T15:01:46.819Z,7.50
2023-01-01T15:04:18.910Z,6.00
2023-01-01T15:06:53.852Z,6.75
2023-01-01T15:09:21.287Z,4.00
2023-01-01T15:11:48.696Z,6.75
2023-01-01T15:14:30.448Z,4.50
2023-01-01T15:17:02.003Z,7.00
2023-01-01T15:19:29.495Z,6.00
2023-01-01T15:21:58.215Z,6.25
2023-01-01T15:24:27.297Z,6.25
2023-01-01T15:26:55.131Z,7.50
2023-01-01T15:29:27.341Z,7.00
2023-01-01T15:31:55.539Z,6.75
2023-01-01T15:34:24.690Z,6.00
2023-01-01T15:36:52.451Z,6.00
2023-01-01T15:39:21.352Z,6.50
2023-01-01T15:41:49.329Z,7.00
2023-01-01T15:44:19.067Z,8.00
2023-01-01T15:46:47.313Z,7.75
2023-01-01T15:49:23.054Z,5.75
2023-01-01T15:51:50.506Z,6.75
2023-01-01T15:54:18.256Z,6.75
2023-01-01T15:56:46.945Z,7.50
2023-01-01T15:59:23.128Z,6.00
2023-01-01T16:01:50.593Z,5.75
2023-01-01T16:04:25.854Z,6.00
2023-01-01T16:06:55.810Z,5.00
2023-01-01T16:09:23.462Z,6.25
2023-01-01T16:11:53.218Z,4.00
2023-01-01T16:14:20.640Z,5.00
2023-01-01T16:16:50.235Z,5.75
2023-01-01T16:19:18.073Z,6.50
2023-01-01T16:21:45.481Z,8.00
2023-01-01T16:24:14.114Z,7.75
2023-01-01T16:26:41.659Z,7.00
2023-01-01T16:29:10.507Z,7.00
2023-01-01T16:31:38.041Z,7.00
2023-01-01T16:34:05.608Z,7.00
2023-01-01T16:36:33.096Z,6.00
2023-01-01T16:39:00.538Z,7.00
2023-01-01T16:41:28.591Z,6.00
2023-01-01T16:43:56.020Z,6.00
2023-01-01T16:46:25.824Z,6.00
2023-01-01T16:48:53.280Z,6.00
2023-01-01T16:51:21.581Z,6.00
2023-01-01T16:53:49.028Z,6.00
2023-01-01T16:56:16.700Z,7.00
2023-01-01T16:58:54.305Z,5.75
2023-01-01T17:01:26.984Z,5.00
2023-01-01T17:03:54.480Z,6.50
2023-01-01T17:06:21.886Z,5.50
2023-01-01T17:08:49.295Z,5.00
2023-01-01T17:11:18.889Z,6.00
2023-01-01T17:13:47.458Z,4.75
2023-01-01T17:16:21.495Z,6.00
2023-01-01T17:21:42.446Z,5.00
2023-01-01T17:24:09.930Z,5.00
2023-01-01T17:26:37.398Z,5.50
2023-01-01T17:29:07.070Z,5.25
2023-01-01T17:33:33.529Z,5.25
2023-01-01T17:36:01.004Z,6.00
2023-01-01T17:38:28.464Z,5.00
2023-01-01T17:41:02.289Z,5.00
2023-01-01T17:43:32.238Z,6.00
2023-01-01T17:46:03.801Z,5.25
2023-01-01T17:48:32.516Z,6.00
2023-01-01T17:51:00.043Z,5.00
2023-01-01T17:53:27.550Z,5.00
2023-01-01T17:55:54.979Z,6.75
2023-01-01T17:58:22.467Z,4.50
2023-01-01T18:00:49.873Z,5.25
2023-01-01T18:03:17.950Z,0.00
2023-01-01T18:05:46.731Z,4.75
2023-01-01T18:08:14.120Z,6.00
2023-01-01T18:10:41.534Z,5.00
2023-01-01T18:13:08.934Z,5.00
2023-01-01T18:15:37.123Z,5.00
2023-01-01T18:18:06.586Z,4.25
2023-01-01T18:20:33.989Z,4.75
2023-01-01T18:23:02.672Z,5.00
2023-01-01T18:25:30.097Z,5.75
2023-01-01T18:27:57.891Z,4.75
2023-01-01T18:30:25.363Z,1.50
2023-01-01T18:32:53.763Z,7.00
2023-01-01T18:35:21.171Z,5.00
2023-01-01T18:37:48.571Z,4.75
2023-01-01T18:40:17.752Z,4.75
2023-01-01T18:42:46.949Z,4.25
2023-01-01T18:45:16.561Z,4.75
2023-01-01T18:47:45.710Z,5.00
2023-01-01T18:50:19.006Z,4.00
2023-01-01T18:52:47.636Z,4.50
2023-01-01T18:55:18.872Z,5.00
2023-01-01T18:57:49.178Z,4.50
2023-01-01T19:00:18.974Z,4.00
2023-01-01T19:02:47.056Z,5.00
2023-01-01T19:05:16.725Z,4.25
2023-01-01T19:07:45.162Z,3.75
2023-01-01T19:10:13.252Z,4.75
2023-01-01T19:12:41.946Z,4.00
2023-01-01T19:15:16.844Z,5.00
2023-01-01T19:17:44.273Z,3.00
2023-01-01T19:20:18.642Z,4.00
2023-01-01T19:22:47.659Z,4.50
2023-01-01T19:27:33.976Z,1.00
2023-01-01T19:30:01.490Z,5.00
2023-01-01T19:32:28.916Z,5.00
2023-01-01T19:34:56.988Z,4.00
2023-01-01T19:37:24.395Z,4.00
2023-01-01T19:39:51.867Z,4.00
2023-01-01T19:42:19.357Z,3.50
2023-01-01T19:44:48.046Z,4.25
2023-01-01T19:47:15.457Z,5.00
2023-01-01T19:49:42.895Z,4.00
2023-01-01T19:52:10.298Z,5.75
2023-01-01T19:54:37.705Z,5.75
2023-01-01T19:57:05.234Z,5.00
2023-01-01T19:59:33.483Z,3.00
2023-01-01T20:02:43.130Z,3.75
2023-01-01T20:04:50.486Z,4.00
2023-01-01T20:07:18.252Z,3.50
2023-01-01T20:09:45.675Z,3.75
2023-01-01T20:12:13.145Z,3.50
2023-01-01T20:14:40.880Z,3.00
2023-01-01T20:17:09.583Z,4.00
2023-01-01T20:19:38.911Z,2.75
2023-01-01T20:22:13.922Z,3.00
2023-01-01T20:24:42.391Z,4.00
2023-01-01T20:27:09.910Z,3.75
2023-01-01T20:29:36.412Z,3.00
2023-01-01T20:32:03.880Z,4.00
2023-01-01T20:34:32.627Z,4.00
2023-01-01T20:37:18.072Z,3.75
2023-01-01T20:39:45.474Z,4.00
2023-01-01T20:42:12.939Z,3.25
2023-01-01T20:44:42.668Z,3.00
2023-01-01T20:47:10.095Z,4.00
2023-01-01T20:49:38.825Z,3.50
2023-01-01T20:52:06.234Z,3.50
2023-01-01T20:54:33.643Z,3.00
2023-01-01T20:57:01.046Z,3.25
2023-01-01T20:59:37.296Z,4.00
2023-01-01T21:02:05.676Z,5.00
2023-01-01T21:04:33.308Z,4.00
2023-01-01T21:07:02.012Z,4.00
2023-01-01T21:09:29.447Z,4.25
2023-01-01T21:11:56.859Z,4.75
2023-01-01T21:14:24.881Z,4.00
2023-01-01T21:16:52.814Z,4.00
2023-01-01T21:19:26.291Z,4.00
2023-01-01T21:21:55.551Z,3.75
2023-01-01T21:24:26.248Z,4.50
2023-01-01T21:26:54.508Z,4.00
2023-01-01T21:29:23.078Z,4.00
2023-01-01T21:31:51.666Z,5.00
2023-01-01T21:34:24.183Z,2.00
2023-01-01T21:36:51.604Z,1.50
2023-01-01T21:39:19.717Z,4.00
2023-01-01T21:41:48.505Z,5.00
2023-01-01T21:44:15.925Z,4.00
2023-01-01T21:46:54.290Z,3.25
2023-01-01T21:49:25.476Z,3.00
2023-01-01T21:51:54.111Z,4.50
2023-01-01T21:54:23.821Z,3.25
2023-01-01T21:56:55.523Z,4.25
2023-01-01T21:59:28.813Z,4.00
2023-01-01T22:01:59.233Z,4.75
2023-01-01T22:04:27.328Z,4.00
2023-01-01T22:06:55.786Z,4.75
2023-01-01T22:09:24.363Z,3.00
2023-01-01T22:11:52.698Z,3.00
2023-01-01T22:14:23.156Z,4.00
2023-01-01T22:16:52.537Z,4.00
2023-01-01T22:19:21.976Z,4.00
2023-01-01T22:21:49.785Z,3.00
2023-01-01T22:24:31.105Z,3.00
2023-01-01T22:27:00.199Z,3.25
2023-01-01T22:29:30.772Z,3.00
2023-01-01T22:32:00.156Z,5.00
2023-01-01T22:34:27.597Z,1.00
2023-01-01T22:36:55.042Z,4.50
2023-01-01T22:39:28.232Z,3.00
2023-01-01T22:41:55.712Z,3.75
2023-01-01T22:44:23.229Z,2.25
2023-01-01T22:46:52.056Z,3.75
2023-01-01T22:49:20.239Z,3.33
2023-01-01T22:51:47.764Z,3.00
2023-01-01T22:54:15.179Z,3.00
2023-01-01T22:56:42.637Z,3.00
2023-01-01T22:59:10.093Z,5.00
2023-01-01T23:01:37.587Z,3.33
2023-01-01T23:04:06.396Z,4.00
2023-01-01T23:06:33.814Z,3.00
2023-01-01T23:09:01.215Z,4.00
2023-01-01T23:11:28.886Z,3.67
2023-01-01T23:14:19.602Z,4.00
2023-01-01T23:16:47.020Z,3.67
2023-01-01T23:19:15.734Z,4.00
2023-01-01T23:21:43.140Z,3.75
2023-01-01T23:24:11.313Z,4.00
2023-01-01T23:26:38.724Z,3.75
2023-01-01T23:29:06.131Z,3.00
2023-01-01T23:31:33.680Z,4.00
2023-01-01T23:34:01.165Z,4.00
2023-01-01T23:36:29.874Z,4.50
2023-01-01T23:38:57.293Z,3.00
2023-01-01T23:41:25.304Z,4.00
2023-01-01T23:43:52.741Z,4.00
2023-01-01T23:46:20.254Z,3.00
2023-01-01T23:48:47.718Z,4.00
2023-01-01T23:51:15.139Z,4.00
2023-01-01T23:53:43.838Z,4.25
2023-01-01T23:56:11.273Z,3.00
2023-01-01T23:58:38.763Z,3.75
